Time;durP1;ratioP1;P1;durP2;ratioP2;P2;SDS_P1;SDS_P2;PMS_P1;PMS_P2;Temp;Humidity;BMP_temperature;BMP_pressure;BME280_temperature;BME280_humidity;BME280_pressure;Samples;Min_cycle;Max_cycle;Signal;HPM_P1;HPM_P2
2024/01/31 00:01:48;;;;;;;51.85;8.07;;;;;;;;;;5041944;28;20033;-30
2024/01/31 00:04:20;;;;;;;56.15;7.78;;;;;;;;;;5041549;28;20064;-30
2024/01/31 00:06:56;;;;;;;49.40;8.32;;;;;;;;;;5048301;28;20036;-30
2024/01/31 00:09:28;;;;;;;53.92;7.65;;;;;;;;;;5047960;28;20029;-30
2024/01/31 00:11:58;;;;;;;60.83;8.32;;;;;;;;;;5045406;28;20079;-31
2024/01/31 00:14:29;;;;;;;48.15;8.18;;;;;;;;;;5047650;28;20036;-31
2024/01/31 00:16:59;;;;;;;42.10;6.68;;;;;;;;;;5048966;28;20080;-32
2024/01/31 00:19:27;;;;;;;43.50;6.28;;;;;;;;;;5049003;28;20036;-31
2024/01/31 00:21:55;;;;;;;43.30;6.43;;;;;;;;;;5053118;28;20104;-30
2024/01/31 00:24:25;;;;;;;43.80;6.18;;;;;;;;;;5050128;28;20044;-30
2024/01/31 00:26:53;;;;;;;33.90;6.00;;;;;;;;;;5048088;28;20103;-31
2024/01/31 00:29:21;;;;;;;22.20;5.45;;;;;;;;;;5057306;28;20029;-31
2024/01/31 00:31:49;;;;;;;40.42;5.32;;;;;;;;;;5039192;28;20442;-31
2024/01/31 00:34:18;;;;;;;21.55;4.55;;;;;;;;;;5053513;28;20624;-31
2024/01/31 00:36:45;;;;;;;30.83;5.25;;;;;;;;;;5054182;28;20775;-31
2024/01/31 00:39:12;;;;;;;35.17;4.20;;;;;;;;;;5049944;28;20044;-32
2024/01/31 00:41:40;;;;;;;30.90;5.05;;;;;;;;;;5042306;28;20022;-31
2024/01/31 00:44:08;;;;;;;43.38;5.65;;;;;;;;;;5033687;28;20505;-31
2024/01/31 00:46:35;;;;;;;35.88;6.25;;;;;;;;;;5050997;28;20037;-32
2024/01/31 00:49:04;;;;;;;35.08;4.97;;;;;;;;;;5063510;28;20518;-31
2024/01/31 00:51:32;;;;;;;25.48;5.07;;;;;;;;;;5036751;28;20037;-31
2024/01/31 00:54:00;;;;;;;25.45;4.10;;;;;;;;;;5044317;28;20483;-33
2024/01/31 00:56:27;;;;;;;31.85;4.93;;;;;;;;;;5038671;28;20068;-33
2024/01/31 00:58:54;;;;;;;23.08;4.72;;;;;;;;;;5049034;28;20108;-30
2024/01/31 01:01:21;;;;;;;33.00;5.10;;;;;;;;;;5053628;28;20059;-31
2024/01/31 01:03:52;;;;;;;28.50;5.57;;;;;;;;;;5051688;28;20123;-32
2024/01/31 01:06:24;;;;;;;24.88;4.85;;;;;;;;;;5053407;28;20087;-31
2024/01/31 01:08:52;;;;;;;57.50;7.13;;;;;;;;;;5053423;28;20048;-30
2024/01/31 01:11:20;;;;;;;31.83;5.45;;;;;;;;;;5049617;28;20067;-31
2024/01/31 01:13:49;;;;;;;21.98;4.60;;;;;;;;;;5043976;28;20033;-30
2024/01/31 01:16:16;;;;;;;22.75;4.82;;;;;;;;;;5040118;28;20025;-30
2024/01/31 01:18:43;;;;;;;31.45;4.72;;;;;;;;;;5051097;28;20098;-30
2024/01/31 01:21:11;;;;;;;24.20;4.50;;;;;;;;;;5052987;28;20025;-32
2024/01/31 01:23:38;;;;;;;23.77;4.25;;;;;;;;;;5049341;28;20044;-32
2024/01/31 01:26:05;;;;;;;35.10;5.47;;;;;;;;;;5036616;28;20066;-32
2024/01/31 01:28:32;;;;;;;32.92;5.88;;;;;;;;;;5047916;28;20071;-33
2024/01/31 01:30:59;;;;;;;28.40;6.82;;;;;;;;;;5052980;28;20475;-32
2024/01/31 01:33:26;;;;;;;25.55;5.30;;;;;;;;;;5048735;28;20399;-33
2024/01/31 01:35:53;;;;;;;18.27;4.93;;;;;;;;;;5050636;28;20021;-32
2024/01/31 01:38:19;;;;;;;19.23;4.63;;;;;;;;;;5047036;28;20387;-33
2024/01/31 01:40:47;;;;;;;28.65;4.88;;;;;;;;;;5053319;28;20036;-32
2024/01/31 01:43:20;;;;;;;20.05;4.07;;;;;;;;;;5045732;28;20395;-32
2024/01/31 01:45:47;;;;;;;23.10;4.55;;;;;;;;;;5052679;28;20040;-32
2024/01/31 01:48:19;;;;;;;16.02;3.92;;;;;;;;;;5052755;28;20041;-33
2024/01/31 01:50:46;;;;;;;37.45;4.55;;;;;;;;;;5039211;28;20033;-34
2024/01/31 01:53:13;;;;;;;27.13;5.07;;;;;;;;;;5044947;28;21800;-33
2024/01/31 01:55:42;;;;;;;46.08;5.63;;;;;;;;;;5052707;28;20087;-33
2024/01/31 01:58:09;;;;;;;39.38;6.03;;;;;;;;;;5049241;28;20032;-33
2024/01/31 02:00:38;;;;;;;33.63;5.97;;;;;;;;;;5047228;28;20108;-33
2024/01/31 02:03:05;;;;;;;24.30;4.72;;;;;;;;;;5052257;28;20029;-33
2024/01/31 02:05:32;;;;;;;32.50;6.32;;;;;;;;;;5052947;28;20029;-33
2024/01/31 02:07:59;;;;;;;36.00;5.20;;;;;;;;;;5052707;28;20036;-33
2024/01/31 02:10:26;;;;;;;27.42;5.38;;;;;;;;;;5052795;28;20037;-33
2024/01/31 02:12:54;;;;;;;34.15;4.95;;;;;;;;;;5052242;28;20047;-31
2024/01/31 02:15:21;;;;;;;29.02;4.93;;;;;;;;;;5052530;28;20060;-31
2024/01/31 02:17:48;;;;;;;22.30;4.22;;;;;;;;;;5052661;28;20037;-31
2024/01/31 02:20:15;;;;;;;17.30;3.72;;;;;;;;;;5052653;28;20556;-32
2024/01/31 02:22:48;;;;;;;18.85;3.45;;;;;;;;;;5052061;28;20041;-32
2024/01/31 02:25:16;;;;;;;16.10;3.35;;;;;;;;;;5052472;28;20059;-32
2024/01/31 02:27:43;;;;;;;25.02;4.03;;;;;;;;;;5039282;28;20047;-32
2024/01/31 02:30:10;;;;;;;19.17;3.58;;;;;;;;;;5048721;28;20107;-32
2024/01/31 02:32:37;;;;;;;21.33;3.65;;;;;;;;;;5049846;28;20025;-32
2024/01/31 02:35:05;;;;;;;21.02;3.70;;;;;;;;;;5052306;28;20036;-32
2024/01/31 02:37:32;;;;;;;18.15;3.88;;;;;;;;;;5052150;28;20124;-32
2024/01/31 02:40:02;;;;;;;20.00;3.70;;;;;;;;;;5052067;28;20114;-32
2024/01/31 02:42:29;;;;;;;23.27;3.47;;;;;;;;;;5051654;28;20135;-32
2024/01/31 02:44:56;;;;;;;15.45;3.40;;;;;;;;;;5051052;28;20051;-32
2024/01/31 02:47:23;;;;;;;22.55;3.70;;;;;;;;;;5037697;28;20115;-32
2024/01/31 02:49:50;;;;;;;20.45;3.20;;;;;;;;;;5049251;28;20025;-32
2024/01/31 02:52:17;;;;;;;20.63;4.05;;;;;;;;;;5051959;28;20091;-32
2024/01/31 02:54:44;;;;;;;16.73;3.20;;;;;;;;;;5051610;28;20720;-32
2024/01/31 02:57:11;;;;;;;23.65;3.35;;;;;;;;;;5052079;28;20132;-32
2024/01/31 02:59:38;;;;;;;23.15;3.20;;;;;;;;;;5045312;28;20079;-32
2024/01/31 03:02:05;;;;;;;15.93;2.78;;;;;;;;;;5044562;28;20383;-32
2024/01/31 03:04:32;;;;;;;23.05;3.80;;;;;;;;;;5051659;28;20025;-32
2024/01/31 03:06:59;;;;;;;28.63;3.33;;;;;;;;;;5050836;28;20032;-30
2024/01/31 03:09:27;;;;;;;25.27;3.10;;;;;;;;;;5051168;28;20368;-30
2024/01/31 03:11:54;;;;;;;18.38;2.97;;;;;;;;;;5047903;28;20032;-31
2024/01/31 03:14:21;;;;;;;15.52;2.80;;;;;;;;;;5050612;28;20032;-30
2024/01/31 03:16:48;;;;;;;18.00;2.90;;;;;;;;;;5048864;28;20449;-30
2024/01/31 03:19:16;;;;;;;15.77;3.00;;;;;;;;;;5050334;28;20489;-30
2024/01/31 03:21:43;;;;;;;20.13;2.90;;;;;;;;;;5049291;28;20033;-31
2024/01/31 03:24:10;;;;;;;17.88;2.50;;;;;;;;;;5050902;28;20029;-31
2024/01/31 03:26:37;;;;;;;12.50;2.63;;;;;;;;;;5048106;28;20036;-31
2024/01/31 03:29:04;;;;;;;17.63;2.72;;;;;;;;;;5050618;28;20053;-31
2024/01/31 03:31:31;;;;;;;16.05;2.63;;;;;;;;;;5049686;28;20060;-31
2024/01/31 03:33:58;;;;;;;14.60;2.47;;;;;;;;;;5050802;28;20040;-31
2024/01/31 03:36:26;;;;;;;20.58;2.90;;;;;;;;;;5050912;28;20021;-30
2024/01/31 03:38:55;;;;;;;20.38;2.85;;;;;;;;;;5051307;28;20037;-30
2024/01/31 03:41:22;;;;;;;19.33;3.15;;;;;;;;;;5051031;28;20037;-30
2024/01/31 03:43:49;;;;;;;23.17;2.80;;;;;;;;;;5051454;28;20106;-30
2024/01/31 03:46:16;;;;;;;22.20;2.88;;;;;;;;;;5050278;28;20029;-30
2024/01/31 03:48:43;;;;;;;24.48;3.42;;;;;;;;;;5050572;28;20025;-30
2024/01/31 03:51:23;;;;;;;19.92;3.33;;;;;;;;;;5050571;28;20035;-30
2024/01/31 03:53:51;;;;;;;23.40;3.63;;;;;;;;;;5047644;28;20031;-30
2024/01/31 03:56:18;;;;;;;29.48;3.13;;;;;;;;;;5054262;28;20131;-30
2024/01/31 03:58:45;;;;;;;18.77;2.80;;;;;;;;;;5054770;28;20036;-30
2024/01/31 04:01:16;;;;;;;15.75;3.20;;;;;;;;;;5054847;28;20028;-30
2024/01/31 04:03:44;;;;;;;20.95;3.17;;;;;;;;;;5054850;28;20028;-31
2024/01/31 04:06:11;;;;;;;18.52;2.70;;;;;;;;;;5054737;28;20028;-30
2024/01/31 04:08:39;;;;;;;20.25;3.08;;;;;;;;;;5055052;28;20387;-30
2024/01/31 04:11:06;;;;;;;23.40;3.33;;;;;;;;;;5055255;28;20094;-30
2024/01/31 04:13:33;;;;;;;35.20;3.92;;;;;;;;;;5055117;28;20021;-30
2024/01/31 04:16:00;;;;;;;43.13;4.15;;;;;;;;;;5055239;28;20025;-30
2024/01/31 04:18:27;;;;;;;25.27;3.35;;;;;;;;;;5054930;28;20036;-30
2024/01/31 04:20:53;;;;;;;31.73;4.05;;;;;;;;;;5054966;28;20495;-30
2024/01/31 04:23:20;;;;;;;24.58;3.13;;;;;;;;;;5055150;28;20029;-30
2024/01/31 04:25:47;;;;;;;20.58;2.92;;;;;;;;;;5054746;28;20033;-31
2024/01/31 04:28:15;;;;;;;22.70;3.15;;;;;;;;;;5054744;28;20041;-30
2024/01/31 04:30:42;;;;;;;26.70;3.90;;;;;;;;;;5054667;28;20107;-30
2024/01/31 04:33:09;;;;;;;31.25;3.88;;;;;;;;;;5054852;28;20503;-30
2024/01/31 04:35:36;;;;;;;32.10;3.63;;;;;;;;;;5054845;28;20491;-30
2024/01/31 04:38:03;;;;;;;20.65;3.20;;;;;;;;;;5053374;28;20029;-30
2024/01/31 04:40:30;;;;;;;32.85;4.22;;;;;;;;;;5054505;28;20027;-30
2024/01/31 04:42:57;;;;;;;31.73;3.47;;;;;;;;;;5054561;28;20116;-30
2024/01/31 04:45:24;;;;;;;25.60;3.45;;;;;;;;;;5054593;28;20064;-30
2024/01/31 04:47:51;;;;;;;25.85;3.58;;;;;;;;;;5054424;28;20552;-30
2024/01/31 04:50:18;;;;;;;34.05;4.30;;;;;;;;;;5054566;28;20079;-30
2024/01/31 04:52:45;;;;;;;22.45;3.17;;;;;;;;;;5054190;28;20037;-30
2024/01/31 04:55:11;;;;;;;33.90;3.50;;;;;;;;;;5054230;28;20510;-30
2024/01/31 04:57:40;;;;;;;23.33;4.18;;;;;;;;;;5054413;28;20028;-30
2024/01/31 05:00:10;;;;;;;31.85;3.67;;;;;;;;;;5054268;28;20039;-30
2024/01/31 05:02:36;;;;;;;29.30;3.53;;;;;;;;;;5054139;28;20036;-30
2024/01/31 05:05:04;;;;;;;29.20;3.83;;;;;;;;;;5054346;28;20029;-30
2024/01/31 05:07:31;;;;;;;28.27;3.40;;;;;;;;;;5053218;28;20494;-30
2024/01/31 05:09:58;;;;;;;32.47;4.00;;;;;;;;;;5054145;28;20467;-30
2024/01/31 05:12:25;;;;;;;32.75;4.32;;;;;;;;;;5052654;28;20052;-30
2024/01/31 05:14:51;;;;;;;25.45;3.78;;;;;;;;;;5054111;28;20480;-30
2024/01/31 05:17:18;;;;;;;34.60;4.50;;;;;;;;;;5054105;28;20029;-30
2024/01/31 05:19:45;;;;;;;33.72;3.88;;;;;;;;;;5054045;28;20036;-30
2024/01/31 05:22:12;;;;;;;39.58;4.20;;;;;;;;;;5053920;28;20495;-30
2024/01/31 05:24:40;;;;;;;29.23;3.95;;;;;;;;;;5052720;28;20486;-30
2024/01/31 05:27:08;;;;;;;29.02;3.67;;;;;;;;;;5053836;28;20394;-30
2024/01/31 05:29:35;;;;;;;36.30;4.25;;;;;;;;;;5053969;28;20585;-30
2024/01/31 05:32:03;;;;;;;27.92;3.97;;;;;;;;;;5053825;28;20171;-30
2024/01/31 05:34:30;;;;;;;23.48;3.45;;;;;;;;;;5053611;28;20037;-30
2024/01/31 05:36:57;;;;;;;37.60;4.80;;;;;;;;;;5053746;28;20051;-30
2024/01/31 05:39:24;;;;;;;27.88;3.55;;;;;;;;;;5053730;28;20021;-30
2024/01/31 05:41:51;;;;;;;31.95;3.95;;;;;;;;;;5053565;28;20033;-30
2024/01/31 05:44:18;;;;;;;31.75;3.92;;;;;;;;;;5053574;28;20044;-30
2024/01/31 05:46:45;;;;;;;32.50;4.10;;;;;;;;;;5053504;28;20037;-30
2024/01/31 05:49:13;;;;;;;24.58;3.45;;;;;;;;;;5053419;28;20770;-30
2024/01/31 05:51:40;;;;;;;36.63;4.10;;;;;;;;;;5053167;28;20029;-30
2024/01/31 05:54:07;;;;;;;21.02;3.28;;;;;;;;;;5053398;28;20024;-30
2024/01/31 05:56:36;;;;;;;22.25;3.70;;;;;;;;;;5053193;28;20558;-30
2024/01/31 05:59:04;;;;;;;27.73;3.45;;;;;;;;;;5053274;28;20432;-30
2024/01/31 06:01:31;;;;;;;28.30;3.83;;;;;;;;;;5051014;28;20074;-30
2024/01/31 06:03:58;;;;;;;34.08;4.38;;;;;;;;;;5053319;28;20522;-30
2024/01/31 06:06:25;;;;;;;29.83;3.58;;;;;;;;;;5053142;28;20059;-30
2024/01/31 06:08:51;;;;;;;27.67;4.18;;;;;;;;;;5053214;28;20079;-30
2024/01/31 06:11:18;;;;;;;31.98;3.90;;;;;;;;;;5053068;28;20108;-30
2024/01/31 06:13:45;;;;;;;23.13;3.85;;;;;;;;;;5053044;28;20021;-30
2024/01/31 06:16:13;;;;;;;25.25;3.75;;;;;;;;;;5053067;28;20039;-30
2024/01/31 06:18:40;;;;;;;25.35;3.60;;;;;;;;;;5052936;28;20130;-30
2024/01/31 06:21:07;;;;;;;30.63;4.30;;;;;;;;;;5052888;28;20474;-30
2024/01/31 06:23:34;;;;;;;24.95;3.25;;;;;;;;;;5052834;28;20028;-30
2024/01/31 06:26:02;;;;;;;33.40;3.70;;;;;;;;;;5052765;28;20437;-30
2024/01/31 06:28:29;;;;;;;19.42;2.83;;;;;;;;;;5052695;28;20040;-30
2024/01/31 06:31:01;;;;;;;31.38;3.88;;;;;;;;;;5052663;28;20107;-30
2024/01/31 06:33:31;;;;;;;30.00;3.60;;;;;;;;;;5052358;28;20037;-30
2024/01/31 06:35:59;;;;;;;32.03;3.10;;;;;;;;;;5052505;28;20129;-30
2024/01/31 06:38:26;;;;;;;32.78;3.97;;;;;;;;;;5052488;28;20383;-30
2024/01/31 06:40:58;;;;;;;26.52;2.75;;;;;;;;;;5052252;28;20041;-30
2024/01/31 06:43:25;;;;;;;20.13;3.10;;;;;;;;;;5052483;28;20056;-30
2024/01/31 06:45:53;;;;;;;30.00;3.70;;;;;;;;;;5052393;28;20104;-30
2024/01/31 06:48:20;;;;;;;35.30;3.75;;;;;;;;;;5052212;28;20087;-30
2024/01/31 06:50:47;;;;;;;26.20;4.05;;;;;;;;;;5052192;28;20024;-30
2024/01/31 06:53:14;;;;;;;26.73;3.13;;;;;;;;;;5052537;28;20090;-30
2024/01/31 06:55:41;;;;;;;24.08;3.30;;;;;;;;;;5052107;28;20090;-30
2024/01/31 06:58:08;;;;;;;23.17;3.65;;;;;;;;;;5052183;28;20032;-30
2024/01/31 07:00:35;;;;;;;23.50;3.17;;;;;;;;;;5052031;28;20498;-30
2024/01/31 07:03:03;;;;;;;21.02;2.85;;;;;;;;;;5052084;28;20025;-30
2024/01/31 07:05:30;;;;;;;32.83;2.90;;;;;;;;;;5052025;28;20391;-30
2024/01/31 07:07:57;;;;;;;25.88;3.80;;;;;;;;;;5052031;28;20487;-30
2024/01/31 07:10:24;;;;;;;21.42;3.75;;;;;;;;;;5051982;28;20039;-30
2024/01/31 07:12:53;;;;;;;22.77;3.08;;;;;;;;;;5051951;28;20029;-30
2024/01/31 07:15:21;;;;;;;23.52;3.50;;;;;;;;;;5051842;28;20035;-30
2024/01/31 07:17:48;;;;;;;26.73;3.28;;;;;;;;;;5051845;28;20029;-30
2024/01/31 07:20:15;;;;;;;19.30;3.50;;;;;;;;;;5051836;28;20518;-30
2024/01/31 07:22:42;;;;;;;15.48;2.90;;;;;;;;;;5051438;28;20040;-30
2024/01/31 07:25:10;;;;;;;22.23;3.20;;;;;;;;;;5051835;28;20590;-30
2024/01/31 07:27:40;;;;;;;18.90;2.55;;;;;;;;;;5051570;28;20032;-30
2024/01/31 07:30:13;;;;;;;22.20;3.30;;;;;;;;;;5051189;28;20028;-30
2024/01/31 07:32:40;;;;;;;22.90;2.83;;;;;;;;;;5051571;28;20059;-30
2024/01/31 07:35:07;;;;;;;17.95;3.05;;;;;;;;;;5051541;28;20086;-30
2024/01/31 07:37:38;;;;;;;24.48;3.33;;;;;;;;;;5051540;28;20107;-30
2024/01/31 07:40:06;;;;;;;32.58;3.58;;;;;;;;;;5051638;28;20032;-30
2024/01/31 07:42:33;;;;;;;23.75;3.55;;;;;;;;;;5051429;28;20483;-30
2024/01/31 07:45:00;;;;;;;26.73;3.63;;;;;;;;;;5051629;28;20032;-30
2024/01/31 07:47:27;;;;;;;18.60;3.17;;;;;;;;;;5051515;28;20056;-30
2024/01/31 07:49:54;;;;;;;24.65;3.53;;;;;;;;;;5051553;28;20029;-30
2024/01/31 07:52:21;;;;;;;29.58;3.03;;;;;;;;;;5051240;28;20029;-30
2024/01/31 07:54:48;;;;;;;17.55;2.85;;;;;;;;;;5051353;28;20025;-30
2024/01/31 07:57:15;;;;;;;33.40;3.45;;;;;;;;;;5051402;28;20035;-30
2024/01/31 07:59:42;;;;;;;19.70;2.80;;;;;;;;;;5051428;28;20386;-30
2024/01/31 08:02:09;;;;;;;17.20;2.90;;;;;;;;;;5051276;28;20032;-29
2024/01/31 08:04:36;;;;;;;27.92;3.33;;;;;;;;;;5051229;28;20371;-30
2024/01/31 08:07:03;;;;;;;20.42;3.13;;;;;;;;;;5051339;28;20041;-30
2024/01/31 08:09:30;;;;;;;18.63;2.67;;;;;;;;;;5051224;28;20033;-30
2024/01/31 08:11:57;;;;;;;26.45;3.50;;;;;;;;;;5051258;28;20033;-30
2024/01/31 08:14:24;;;;;;;28.77;3.28;;;;;;;;;;5051237;28;20025;-30
2024/01/31 08:16:51;;;;;;;29.17;3.70;;;;;;;;;;5051253;28;20086;-30
2024/01/31 08:19:18;;;;;;;25.73;3.47;;;;;;;;;;5051347;28;20364;-30
2024/01/31 08:21:45;;;;;;;30.70;3.30;;;;;;;;;;5051142;28;20032;-30
2024/01/31 08:24:12;;;;;;;31.40;4.13;;;;;;;;;;5051075;28;20425;-30
2024/01/31 08:26:39;;;;;;;35.95;4.68;;;;;;;;;;5051037;28;20021;-30
2024/01/31 08:29:09;;;;;;;21.75;4.15;;;;;;;;;;5049742;28;20037;-30
2024/01/31 08:31:36;;;;;;;44.65;8.40;;;;;;;;;;5051076;28;20029;-30
2024/01/31 08:34:03;;;;;;;60.58;13.80;;;;;;;;;;5051056;28;20027;-30
2024/01/31 08:36:31;;;;;;;104.65;21.77;;;;;;;;;;5051085;28;20272;-30
2024/01/31 08:38:57;;;;;;;109.25;35.65;;;;;;;;;;5051004;28;20482;-30
2024/01/31 08:41:25;;;;;;;183.85;62.97;;;;;;;;;;5051141;28;20399;-30
2024/01/31 08:43:52;;;;;;;230.93;86.07;;;;;;;;;;5054628;28;20582;-30
2024/01/31 08:46:19;;;;;;;225.50;89.13;;;;;;;;;;5054603;28;20036;-30
2024/01/31 08:48:46;;;;;;;256.02;92.30;;;;;;;;;;5054608;28;20021;-30
2024/01/31 08:51:14;;;;;;;184.75;70.00;;;;;;;;;;5054452;28;20029;-30
2024/01/31 08:53:42;;;;;;;184.80;60.28;;;;;;;;;;5054463;28;20132;-30
2024/01/31 08:56:12;;;;;;;137.40;51.67;;;;;;;;;;5054195;28;20076;-30
2024/01/31 08:58:39;;;;;;;142.88;51.08;;;;;;;;;;5054491;28;20502;-30
2024/01/31 09:01:07;;;;;;;141.40;47.42;;;;;;;;;;5054323;28;20511;-30
2024/01/31 09:03:34;;;;;;;131.85;45.05;;;;;;;;;;5052996;28;20090;-30
2024/01/31 09:06:01;;;;;;;171.45;60.72;;;;;;;;;;5054246;28;20025;-30
2024/01/31 09:08:28;;;;;;;176.52;62.47;;;;;;;;;;5054217;28;20132;-30
2024/01/31 09:10:55;;;;;;;191.35;66.72;;;;;;;;;;5054142;28;20072;-30
2024/01/31 09:13:22;;;;;;;196.60;71.40;;;;;;;;;;5054295;28;20052;-30
2024/01/31 09:15:49;;;;;;;190.38;68.72;;;;;;;;;;5054115;28;20479;-30
2024/01/31 09:18:16;;;;;;;161.18;58.72;;;;;;;;;;5053916;28;20503;-30
2024/01/31 09:20:44;;;;;;;148.15;53.17;;;;;;;;;;5053919;28;20039;-30
2024/01/31 09:23:10;;;;;;;135.50;47.70;;;;;;;;;;5053982;28;20387;-30
2024/01/31 09:25:37;;;;;;;120.13;42.33;;;;;;;;;;5053921;28;20040;-30
2024/01/31 09:28:04;;;;;;;110.60;37.35;;;;;;;;;;5053866;28;20040;-30
2024/01/31 09:30:31;;;;;;;102.30;33.05;;;;;;;;;;5053671;28;20126;-30
2024/01/31 09:32:58;;;;;;;84.47;26.15;;;;;;;;;;5053686;28;20116;-30
2024/01/31 09:35:26;;;;;;;76.97;23.50;;;;;;;;;;5053816;28;20061;-30
2024/01/31 09:37:53;;;;;;;83.03;24.27;;;;;;;;;;5053769;28;20036;-30
2024/01/31 09:40:23;;;;;;;73.22;21.52;;;;;;;;;;5053636;28;20032;-30
2024/01/31 09:42:52;;;;;;;75.95;21.23;;;;;;;;;;5053884;28;20095;-30
2024/01/31 09:45:19;;;;;;;91.60;22.27;;;;;;;;;;5053658;28;20036;-30
2024/01/31 09:47:47;;;;;;;74.40;19.65;;;;;;;;;;5053584;28;20498;-30
2024/01/31 09:50:15;;;;;;;106.05;24.67;;;;;;;;;;5053518;28;20071;-30
2024/01/31 09:52:42;;;;;;;92.95;26.08;;;;;;;;;;5053120;28;20032;-30
2024/01/31 09:55:12;;;;;;;130.25;31.25;;;;;;;;;;5053336;28;20131;-30
2024/01/31 09:57:42;;;;;;;111.93;33.15;;;;;;;;;;5053462;28;20055;-30
2024/01/31 10:00:09;;;;;;;118.78;38.42;;;;;;;;;;5053242;28;20036;-30
2024/01/31 10:02:37;;;;;;;143.10;46.03;;;;;;;;;;5053345;28;20100;-30
2024/01/31 10:05:06;;;;;;;160.52;56.70;;;;;;;;;;5053266;28;20026;-30
2024/01/31 10:07:33;;;;;;;210.07;75.55;;;;;;;;;;5053280;28;20115;-30
2024/01/31 10:10:00;;;;;;;203.50;79.68;;;;;;;;;;5053254;28;20029;-30
2024/01/31 10:12:27;;;;;;;227.38;80.28;;;;;;;;;;5053048;28;20032;-30
2024/01/31 10:14:55;;;;;;;209.00;77.68;;;;;;;;;;5053090;28;20474;-30
2024/01/31 10:17:23;;;;;;;186.20;65.90;;;;;;;;;;5053111;28;20037;-30
2024/01/31 10:19:50;;;;;;;179.05;60.40;;;;;;;;;;5052970;28;20030;-30
2024/01/31 10:22:18;;;;;;;136.45;50.35;;;;;;;;;;5052866;28;20029;-30
2024/01/31 10:24:51;;;;;;;124.43;45.58;;;;;;;;;;5053087;28;20060;-30
2024/01/31 10:27:21;;;;;;;130.90;44.38;;;;;;;;;;5052795;28;20029;-30
2024/01/31 10:29:48;;;;;;;137.68;46.10;;;;;;;;;;5052734;28;20527;-30
2024/01/31 10:32:18;;;;;;;134.60;47.88;;;;;;;;;;5052663;28;20104;-30
2024/01/31 10:34:45;;;;;;;165.55;53.58;;;;;;;;;;5052666;28;20025;-30
2024/01/31 10:37:12;;;;;;;208.75;71.78;;;;;;;;;;5051256;28;20078;-30
2024/01/31 10:39:40;;;;;;;205.27;80.95;;;;;;;;;;5052419;28;20100;-30
2024/01/31 10:42:07;;;;;;;255.80;95.63;;;;;;;;;;5052424;28;20112;-30
2024/01/31 10:44:34;;;;;;;288.17;109.97;;;;;;;;;;5052449;28;20083;-30
2024/01/31 10:47:01;;;;;;;301.77;120.72;;;;;;;;;;5052446;28;20487;-30
2024/01/31 10:49:28;;;;;;;313.17;121.18;;;;;;;;;;5052388;28;20036;-30
2024/01/31 10:51:57;;;;;;;293.30;110.07;;;;;;;;;;5052115;28;20028;-30
2024/01/31 10:54:28;;;;;;;272.55;106.07;;;;;;;;;;5052358;28;20116;-30
2024/01/31 10:56:55;;;;;;;211.30;84.97;;;;;;;;;;5052041;28;20506;-30
2024/01/31 10:59:22;;;;;;;163.43;62.95;;;;;;;;;;5052314;28;20033;-30
2024/01/31 11:01:59;;;;;;;149.02;52.03;;;;;;;;;;5052190;28;20087;-30
2024/01/31 11:04:26;;;;;;;112.03;33.40;;;;;;;;;;5051294;28;20119;-30
2024/01/31 11:06:53;;;;;;;92.45;22.15;;;;;;;;;;5051932;28;20460;-30
2024/01/31 11:09:23;;;;;;;75.38;15.98;;;;;;;;;;5050602;28;20029;-30
2024/01/31 11:12:03;;;;;;;70.28;16.85;;;;;;;;;;5051928;28;20040;-30
2024/01/31 11:14:31;;;;;;;55.30;14.75;;;;;;;;;;5051873;28;20067;-30
2024/01/31 11:17:08;;;;;;;76.43;18.85;;;;;;;;;;5051957;28;20025;-30
2024/01/31 11:19:37;;;;;;;61.40;12.85;;;;;;;;;;5051633;28;20033;-30
2024/01/31 11:22:06;;;;;;;61.75;13.48;;;;;;;;;;5051829;28;20032;-30
2024/01/31 11:24:33;;;;;;;58.60;11.10;;;;;;;;;;5051764;28;20508;-30
2024/01/31 11:27:04;;;;;;;54.58;11.73;;;;;;;;;;5051707;28;20086;-30
2024/01/31 11:29:31;;;;;;;49.08;11.07;;;;;;;;;;5050691;28;20060;-30
2024/01/31 11:31:59;;;;;;;51.25;10.27;;;;;;;;;;5050558;28;20036;-30
2024/01/31 11:34:26;;;;;;;38.22;7.90;;;;;;;;;;5051015;28;20033;-30
2024/01/31 11:36:53;;;;;;;34.30;6.93;;;;;;;;;;5050968;28;20087;-30
2024/01/31 11:39:20;;;;;;;34.72;6.40;;;;;;;;;;5050934;28;20447;-30
2024/01/31 11:41:47;;;;;;;34.15;6.35;;;;;;;;;;5048259;28;20029;-30
2024/01/31 11:44:14;;;;;;;39.40;5.70;;;;;;;;;;5047741;28;20029;-31
2024/01/31 11:46:41;;;;;;;30.20;6.10;;;;;;;;;;5050948;28;20051;-31
2024/01/31 11:49:08;;;;;;;29.20;5.13;;;;;;;;;;5048528;28;20028;-31
2024/01/31 11:51:35;;;;;;;23.73;4.07;;;;;;;;;;5050445;28;20474;-31
2024/01/31 11:54:02;;;;;;;27.50;4.90;;;;;;;;;;5050058;28;20040;-31
2024/01/31 12:00:07;;;;;;;35.05;6.40;;;;;;;;;;5042458;28;20095;-31
2024/01/31 12:03:13;;;;;;;27.00;5.30;;;;;;;;;;5046667;28;20045;-31
2024/01/31 12:05:55;;;;;;;42.58;7.30;;;;;;;;;;5013655;28;20077;-31
2024/01/31 12:08:26;;;;;;;35.85;6.65;;;;;;;;;;5038015;28;20128;-30
2024/01/31 12:10:54;;;;;;;32.05;6.30;;;;;;;;;;5044763;28;20394;-30
2024/01/31 12:13:22;;;;;;;23.17;5.75;;;;;;;;;;5050243;28;20036;-30
2024/01/31 12:15:49;;;;;;;36.58;6.65;;;;;;;;;;5051748;28;20042;-30
2024/01/31 12:18:16;;;;;;;32.85;5.57;;;;;;;;;;5054060;28;20052;-30
2024/01/31 12:20:43;;;;;;;27.85;5.20;;;;;;;;;;5054654;28;20063;-29
2024/01/31 12:23:10;;;;;;;33.80;5.70;;;;;;;;;;5054084;28;20063;-29
2024/01/31 12:25:37;;;;;;;42.60;5.85;;;;;;;;;;5047966;28;20036;-29
2024/01/31 12:28:05;;;;;;;33.28;5.63;;;;;;;;;;5054317;28;20040;-30
2024/01/31 12:30:32;;;;;;;45.78;6.15;;;;;;;;;;5053329;28;20423;-30
2024/01/31 12:32:59;;;;;;;34.28;6.43;;;;;;;;;;5053078;28;20055;-29
2024/01/31 12:35:26;;;;;;;41.55;5.85;;;;;;;;;;5054181;28;20029;-29
2024/01/31 12:37:53;;;;;;;23.02;4.15;;;;;;;;;;5053870;28;20025;-30
2024/01/31 12:40:20;;;;;;;22.33;3.35;;;;;;;;;;5054181;28;20024;-29
2024/01/31 12:42:47;;;;;;;26.08;4.30;;;;;;;;;;5053630;28;20025;-29
2024/01/31 12:45:25;;;;;;;22.27;4.07;;;;;;;;;;5051280;28;20033;-30
2024/01/31 12:47:52;;;;;;;26.13;4.50;;;;;;;;;;5053075;28;20041;-29
2024/01/31 12:50:19;;;;;;;21.33;4.43;;;;;;;;;;5053550;28;20095;-29
2024/01/31 12:52:47;;;;;;;25.48;3.80;;;;;;;;;;5054161;28;20115;-29
2024/01/31 12:55:14;;;;;;;20.65;3.15;;;;;;;;;;5053927;28;20031;-30
2024/01/31 12:57:41;;;;;;;23.98;3.55;;;;;;;;;;5047968;28;20041;-29
2024/01/31 13:00:08;;;;;;;27.05;3.33;;;;;;;;;;5052407;28;20039;-30
2024/01/31 13:02:35;;;;;;;31.27;3.78;;;;;;;;;;5054235;28;20025;-29
2024/01/31 13:05:02;;;;;;;22.25;2.90;;;;;;;;;;5053517;28;20029;-29
2024/01/31 13:07:29;;;;;;;21.75;3.28;;;;;;;;;;5053763;28;20550;-28
2024/01/31 13:09:57;;;;;;;21.48;3.35;;;;;;;;;;5053589;28;20033;-28
2024/01/31 13:12:24;;;;;;;17.60;2.80;;;;;;;;;;5053660;28;20086;-28
2024/01/31 13:14:51;;;;;;;14.05;2.80;;;;;;;;;;5053492;28;20104;-30
2024/01/31 13:17:18;;;;;;;17.70;3.15;;;;;;;;;;5053444;28;20512;-29
2024/01/31 13:19:45;;;;;;;15.50;3.20;;;;;;;;;;5052702;28;20025;-29
2024/01/31 13:22:12;;;;;;;16.17;3.35;;;;;;;;;;5052200;28;20040;-29
2024/01/31 13:24:39;;;;;;;14.95;2.92;;;;;;;;;;5052692;28;20041;-29
2024/01/31 13:27:07;;;;;;;66.75;8.10;;;;;;;;;;5052360;28;20079;-29
2024/01/31 13:29:34;;;;;;;220.38;21.27;;;;;;;;;;5050953;28;20116;-32
2024/01/31 13:32:01;;;;;;;181.98;21.13;;;;;;;;;;5043134;28;20029;-32
2024/01/31 13:34:28;;;;;;;180.45;18.92;;;;;;;;;;5053367;28;20021;-32
2024/01/31 13:36:55;;;;;;;174.40;19.40;;;;;;;;;;5053384;28;20431;-32
2024/01/31 13:39:22;;;;;;;166.10;18.05;;;;;;;;;;5044350;28;20036;-32
2024/01/31 13:41:49;;;;;;;181.57;20.73;;;;;;;;;;5052936;28;20041;-32
2024/01/31 13:44:16;;;;;;;203.48;22.92;;;;;;;;;;5052903;28;20112;-32
2024/01/31 13:46:43;;;;;;;207.57;23.77;;;;;;;;;;5045918;28;20025;-32
2024/01/31 13:49:12;;;;;;;189.57;21.90;;;;;;;;;;5051855;28;20039;-32
2024/01/31 13:51:42;;;;;;;178.35;21.55;;;;;;;;;;5052544;28;20067;-32
2024/01/31 13:54:09;;;;;;;138.77;18.15;;;;;;;;;;5039901;28;20394;-32
2024/01/31 13:56:36;;;;;;;129.15;15.73;;;;;;;;;;5051040;28;20566;-32
2024/01/31 13:59:03;;;;;;;129.15;15.82;;;;;;;;;;5051683;28;20058;-32
2024/01/31 14:01:30;;;;;;;116.38;14.75;;;;;;;;;;5042038;28;20138;-32
2024/01/31 14:03:57;;;;;;;85.07;12.25;;;;;;;;;;5051515;28;20047;-32
2024/01/31 14:06:24;;;;;;;74.00;12.10;;;;;;;;;;5052730;28;20029;-32
2024/01/31 14:08:51;;;;;;;81.75;10.98;;;;;;;;;;5053108;28;20506;-32
2024/01/31 14:11:19;;;;;;;61.65;9.63;;;;;;;;;;5051803;28;20044;-32
2024/01/31 14:13:47;;;;;;;77.45;10.18;;;;;;;;;;5042634;28;20040;-32
2024/01/31 14:16:15;;;;;;;54.38;9.48;;;;;;;;;;5049273;28;20028;-32
2024/01/31 14:18:42;;;;;;;60.88;9.38;;;;;;;;;;5052783;28;20060;-32
2024/01/31 14:21:09;;;;;;;56.33;8.77;;;;;;;;;;5052619;28;20383;-32
2024/01/31 14:23:36;;;;;;;58.38;8.23;;;;;;;;;;5052795;28;20055;-33
2024/01/31 14:26:03;;;;;;;48.63;8.70;;;;;;;;;;5052715;28;20052;-32
2024/01/31 14:28:30;;;;;;;45.08;7.30;;;;;;;;;;5045712;28;20168;-32
2024/01/31 14:30:57;;;;;;;47.20;7.53;;;;;;;;;;5044745;28;20029;-32